Hauptseite
METAR-TAF:

METAR-TAF

Flughäfen :

Le Touquet, Frankreich

Flughafen Touquet-Côte d’Opale

Breite: 50-30-53N, Länge: 001-37-39E, Höhe: 6 m

METAR: fehlend

Zeit: 16:07 (15:07 UTC)

Prognose

Neuester Wetterbericht von vor 1 Stunde und 7 Minuten, um 14:00 UTC
Gültige Prognose vom 19 um 15 UTC bis 19 um 24 UTC
Wind 12 kt aus West
Sichtweite 10 km oder mehr
Aufgelockert bewölkt in der Höhe von 3500 ft

TAF: LFAT 191400Z 1915/1924 27012KT 9999 SCT035

Wetterbeobachtungen und Prognosen von mehr als 4000 Flughäfen (METAR und TAF Bericht).

Die verfügbaren Stationen werden durch gelbe und rote Markierungen auf der Karte dargestellt.

Führen Sie die Maus auf sie, um den Namen der Station zu sehen.

Darauf klicken, um die Beobachtung von Wetterbeobachtungen und Prognosen zu sehen.

Um die Karte zu ändern : klicken Sie auf den grünen Tasten mit einem schwarzen Kreuz Zum Vergrößern, auf den grünen Button mit einem Gedankenstrich zu verkleinern, oder auf die grünen Pfeile für benachbarte Karten.


METAR-TAF: